sensor_id;sensor_type;location;lat;lon;timestamp;P1;durP1;ratioP1;P2;durP2;ratioP2
76023;SDS011;64719;52.124;6.226;2023-07-29T00:01:26;20.02;;;11.23;;
76023;SDS011;64719;52.124;6.226;2023-07-29T00:03:53;18.83;;;10.38;;
76023;SDS011;64719;52.124;6.226;2023-07-29T00:06:20;16.95;;;10.10;;
76023;SDS011;64719;52.124;6.226;2023-07-29T00:08:46;16.27;;;10.05;;
76023;SDS011;64719;52.124;6.226;2023-07-29T00:11:13;20.27;;;10.57;;
76023;SDS011;64719;52.124;6.226;2023-07-29T00:13:41;16.08;;;9.45;;
76023;SDS011;64719;52.124;6.226;2023-07-29T00:16:07;19.35;;;11.23;;
76023;SDS011;64719;52.124;6.226;2023-07-29T00:18:34;19.85;;;11.27;;
76023;SDS011;64719;52.124;6.226;2023-07-29T00:21:00;20.27;;;10.93;;
76023;SDS011;64719;52.124;6.226;2023-07-29T00:23:27;20.85;;;11.27;;
76023;SDS011;64719;52.124;6.226;2023-07-29T00:25:55;17.75;;;10.27;;
76023;SDS011;64719;52.124;6.226;2023-07-29T00:28:21;18.35;;;10.95;;
76023;SDS011;64719;52.124;6.226;2023-07-29T00:30:49;17.80;;;10.05;;
76023;SDS011;64719;52.124;6.226;2023-07-29T00:33:16;16.30;;;10.27;;
76023;SDS011;64719;52.124;6.226;2023-07-29T00:35:42;19.85;;;10.85;;
76023;SDS011;64719;52.124;6.226;2023-07-29T00:38:09;17.63;;;10.07;;
76023;SDS011;64719;52.124;6.226;2023-07-29T00:40:36;19.75;;;10.43;;
76023;SDS011;64719;52.124;6.226;2023-07-29T00:43:03;18.55;;;10.15;;
76023;SDS011;64719;52.124;6.226;2023-07-29T00:45:29;18.80;;;10.15;;
76023;SDS011;64719;52.124;6.226;2023-07-29T00:50:25;21.58;;;10.68;;
76023;SDS011;64719;52.124;6.226;2023-07-29T00:52:53;17.60;;;9.90;;
76023;SDS011;64719;52.124;6.226;2023-07-29T00:55:20;23.25;;;11.77;;
76023;SDS011;64719;52.124;6.226;2023-07-29T00:57:47;18.27;;;10.18;;
76023;SDS011;64719;52.124;6.226;2023-07-29T01:00:16;18.13;;;10.00;;
76023;SDS011;64719;52.124;6.226;2023-07-29T01:02:43;16.83;;;9.82;;
76023;SDS011;64719;52.124;6.226;2023-07-29T01:05:12;16.63;;;9.63;;
76023;SDS011;64719;52.124;6.226;2023-07-29T01:07:43;16.45;;;9.82;;
76023;SDS011;64719;52.124;6.226;2023-07-29T01:10:16;18.88;;;10.95;;
76023;SDS011;64719;52.124;6.226;2023-07-29T01:12:51;23.13;;;11.57;;
76023;SDS011;64719;52.124;6.226;2023-07-29T01:15:24;18.13;;;9.80;;
76023;SDS011;64719;52.124;6.226;2023-07-29T01:17:55;17.80;;;10.52;;
76023;SDS011;64719;52.124;6.226;2023-07-29T01:20:26;20.40;;;10.80;;
76023;SDS011;64719;52.124;6.226;2023-07-29T01:22:54;23.63;;;12.43;;
76023;SDS011;64719;52.124;6.226;2023-07-29T01:25:22;25.23;;;13.02;;
76023;SDS011;64719;52.124;6.226;2023-07-29T01:27:49;21.73;;;12.40;;
76023;SDS011;64719;52.124;6.226;2023-07-29T01:30:17;20.67;;;10.85;;
76023;SDS011;64719;52.124;6.226;2023-07-29T01:32:45;20.55;;;10.95;;
76023;SDS011;64719;52.124;6.226;2023-07-29T01:35:19;18.15;;;10.23;;
76023;SDS011;64719;52.124;6.226;2023-07-29T01:37:51;21.35;;;11.23;;
76023;SDS011;64719;52.124;6.226;2023-07-29T01:40:22;19.73;;;10.57;;
76023;SDS011;64719;52.124;6.226;2023-07-29T01:42:53;17.20;;;9.30;;
76023;SDS011;64719;52.124;6.226;2023-07-29T01:45:22;17.50;;;9.65;;
76023;SDS011;64719;52.124;6.226;2023-07-29T01:47:50;17.88;;;10.52;;
76023;SDS011;64719;52.124;6.226;2023-07-29T01:50:16;21.23;;;9.57;;
76023;SDS011;64719;52.124;6.226;2023-07-29T01:52:43;18.63;;;9.73;;
76023;SDS011;64719;52.124;6.226;2023-07-29T01:55:09;17.40;;;9.73;;
76023;SDS011;64719;52.124;6.226;2023-07-29T02:00:06;17.15;;;10.30;;
76023;SDS011;64719;52.124;6.226;2023-07-29T02:05:00;19.60;;;10.35;;
76023;SDS011;64719;52.124;6.226;2023-07-29T02:07:26;16.48;;;8.93;;
76023;SDS011;64719;52.124;6.226;2023-07-29T02:09:53;16.50;;;8.40;;
76023;SDS011;64719;52.124;6.226;2023-07-29T02:12:19;16.10;;;8.98;;
76023;SDS011;64719;52.124;6.226;2023-07-29T02:14:47;14.98;;;8.43;;
76023;SDS011;64719;52.124;6.226;2023-07-29T02:17:14;17.15;;;8.98;;
76023;SDS011;64719;52.124;6.226;2023-07-29T02:19:40;16.90;;;8.88;;
76023;SDS011;64719;52.124;6.226;2023-07-29T02:22:07;22.58;;;9.98;;
76023;SDS011;64719;52.124;6.226;2023-07-29T02:24:33;13.85;;;8.55;;
76023;SDS011;64719;52.124;6.226;2023-07-29T02:27:00;15.57;;;8.65;;
76023;SDS011;64719;52.124;6.226;2023-07-29T02:32:03;16.00;;;9.50;;
76023;SDS011;64719;52.124;6.226;2023-07-29T02:34:30;14.32;;;8.80;;
76023;SDS011;64719;52.124;6.226;2023-07-29T02:36:57;14.40;;;8.07;;
76023;SDS011;64719;52.124;6.226;2023-07-29T02:39:23;15.45;;;8.40;;
76023;SDS011;64719;52.124;6.226;2023-07-29T02:41:50;13.85;;;8.18;;
76023;SDS011;64719;52.124;6.226;2023-07-29T02:44:16;15.38;;;8.60;;
76023;SDS011;64719;52.124;6.226;2023-07-29T02:49:12;14.48;;;8.23;;
76023;SDS011;64719;52.124;6.226;2023-07-29T02:51:39;14.70;;;8.57;;
76023;SDS011;64719;52.124;6.226;2023-07-29T02:54:05;16.23;;;8.95;;
76023;SDS011;64719;52.124;6.226;2023-07-29T02:56:32;14.75;;;8.77;;
76023;SDS011;64719;52.124;6.226;2023-07-29T02:58:59;13.30;;;8.13;;
76023;SDS011;64719;52.124;6.226;2023-07-29T03:01:26;15.10;;;8.13;;
76023;SDS011;64719;52.124;6.226;2023-07-29T03:03:53;14.48;;;7.65;;
76023;SDS011;64719;52.124;6.226;2023-07-29T03:06:21;13.13;;;7.47;;
76023;SDS011;64719;52.124;6.226;2023-07-29T03:08:48;10.52;;;6.70;;
76023;SDS011;64719;52.124;6.226;2023-07-29T03:11:15;14.13;;;7.35;;
76023;SDS011;64719;52.124;6.226;2023-07-29T03:13:42;14.40;;;7.28;;
76023;SDS011;64719;52.124;6.226;2023-07-29T03:16:09;12.73;;;7.10;;
76023;SDS011;64719;52.124;6.226;2023-07-29T03:18:37;12.63;;;7.20;;
76023;SDS011;64719;52.124;6.226;2023-07-29T03:21:04;14.98;;;7.15;;
76023;SDS011;64719;52.124;6.226;2023-07-29T03:23:32;13.73;;;7.40;;
76023;SDS011;64719;52.124;6.226;2023-07-29T03:26:00;13.77;;;6.68;;
76023;SDS011;64719;52.124;6.226;2023-07-29T03:28:29;11.05;;;6.03;;
76023;SDS011;64719;52.124;6.226;2023-07-29T03:30:58;13.82;;;6.82;;
76023;SDS011;64719;52.124;6.226;2023-07-29T03:33:25;15.88;;;8.90;;
76023;SDS011;64719;52.124;6.226;2023-07-29T03:35:52;14.65;;;8.60;;
76023;SDS011;64719;52.124;6.226;2023-07-29T03:38:19;16.27;;;9.13;;
76023;SDS011;64719;52.124;6.226;2023-07-29T03:40:47;16.63;;;9.20;;
76023;SDS011;64719;52.124;6.226;2023-07-29T03:48:06;18.23;;;9.93;;
76023;SDS011;64719;52.124;6.226;2023-07-29T03:50:33;18.67;;;10.63;;
76023;SDS011;64719;52.124;6.226;2023-07-29T03:53:01;22.77;;;11.80;;
76023;SDS011;64719;52.124;6.226;2023-07-29T03:55:28;20.95;;;11.40;;
76023;SDS011;64719;52.124;6.226;2023-07-29T03:57:56;21.15;;;11.63;;
76023;SDS011;64719;52.124;6.226;2023-07-29T04:00:23;20.40;;;11.07;;
76023;SDS011;64719;52.124;6.226;2023-07-29T04:02:50;22.17;;;11.45;;
76023;SDS011;64719;52.124;6.226;2023-07-29T04:05:16;19.75;;;10.88;;
76023;SDS011;64719;52.124;6.226;2023-07-29T04:07:43;19.27;;;10.80;;
76023;SDS011;64719;52.124;6.226;2023-07-29T04:10:10;19.13;;;10.43;;
76023;SDS011;64719;52.124;6.226;2023-07-29T04:12:37;20.25;;;10.65;;
76023;SDS011;64719;52.124;6.226;2023-07-29T04:15:05;18.25;;;11.23;;
76023;SDS011;64719;52.124;6.226;2023-07-29T04:17:33;19.05;;;10.63;;
76023;SDS011;64719;52.124;6.226;2023-07-29T04:19:59;21.25;;;11.15;;
76023;SDS011;64719;52.124;6.226;2023-07-29T04:22:26;16.65;;;9.82;;
76023;SDS011;64719;52.124;6.226;2023-07-29T04:24:52;17.98;;;11.07;;
76023;SDS011;64719;52.124;6.226;2023-07-29T04:27:19;18.20;;;10.77;;
76023;SDS011;64719;52.124;6.226;2023-07-29T04:29:45;17.63;;;11.13;;
76023;SDS011;64719;52.124;6.226;2023-07-29T04:32:13;21.05;;;11.05;;
76023;SDS011;64719;52.124;6.226;2023-07-29T04:34:40;20.58;;;11.55;;
76023;SDS011;64719;52.124;6.226;2023-07-29T04:37:06;18.02;;;10.25;;
76023;SDS011;64719;52.124;6.226;2023-07-29T04:39:33;19.98;;;10.70;;
76023;SDS011;64719;52.124;6.226;2023-07-29T04:42:00;23.00;;;11.30;;
76023;SDS011;64719;52.124;6.226;2023-07-29T04:44:26;18.45;;;10.23;;
76023;SDS011;64719;52.124;6.226;2023-07-29T04:46:53;17.02;;;10.10;;
76023;SDS011;64719;52.124;6.226;2023-07-29T04:49:20;18.42;;;10.25;;
76023;SDS011;64719;52.124;6.226;2023-07-29T04:51:47;18.30;;;9.73;;
76023;SDS011;64719;52.124;6.226;2023-07-29T04:54:13;16.88;;;9.50;;
76023;SDS011;64719;52.124;6.226;2023-07-29T04:56:40;17.83;;;9.90;;
76023;SDS011;64719;52.124;6.226;2023-07-29T04:59:06;14.48;;;8.55;;
76023;SDS011;64719;52.124;6.226;2023-07-29T05:01:33;14.95;;;8.10;;
76023;SDS011;64719;52.124;6.226;2023-07-29T05:04:00;13.73;;;8.07;;
76023;SDS011;64719;52.124;6.226;2023-07-29T05:06:28;12.93;;;7.78;;
76023;SDS011;64719;52.124;6.226;2023-07-29T05:11:23;12.27;;;7.60;;
76023;SDS011;64719;52.124;6.226;2023-07-29T05:13:50;15.48;;;7.60;;
76023;SDS011;64719;52.124;6.226;2023-07-29T05:16:16;10.80;;;6.93;;
76023;SDS011;64719;52.124;6.226;2023-07-29T05:18:43;10.80;;;6.45;;
76023;SDS011;64719;52.124;6.226;2023-07-29T05:21:09;12.77;;;6.28;;
76023;SDS011;64719;52.124;6.226;2023-07-29T05:23:40;11.70;;;6.30;;
76023;SDS011;64719;52.124;6.226;2023-07-29T05:26:07;9.75;;;5.57;;
76023;SDS011;64719;52.124;6.226;2023-07-29T05:28:33;8.68;;;5.10;;
76023;SDS011;64719;52.124;6.226;2023-07-29T05:31:00;10.05;;;4.90;;
76023;SDS011;64719;52.124;6.226;2023-07-29T05:33:27;8.07;;;4.35;;
76023;SDS011;64719;52.124;6.226;2023-07-29T05:35:54;8.15;;;3.50;;
76023;SDS011;64719;52.124;6.226;2023-07-29T05:38:21;7.43;;;4.18;;
76023;SDS011;64719;52.124;6.226;2023-07-29T05:40:49;8.48;;;3.53;;
76023;SDS011;64719;52.124;6.226;2023-07-29T05:43:16;5.28;;;3.05;;
76023;SDS011;64719;52.124;6.226;2023-07-29T05:45:42;5.88;;;3.08;;
76023;SDS011;64719;52.124;6.226;2023-07-29T05:48:09;5.53;;;3.03;;
76023;SDS011;64719;52.124;6.226;2023-07-29T05:50:35;4.28;;;2.60;;
76023;SDS011;64719;52.124;6.226;2023-07-29T05:53:02;4.10;;;2.30;;
76023;SDS011;64719;52.124;6.226;2023-07-29T05:55:28;4.65;;;2.40;;
76023;SDS011;64719;52.124;6.226;2023-07-29T05:57:56;3.85;;;2.58;;
76023;SDS011;64719;52.124;6.226;2023-07-29T06:10:10;5.03;;;2.50;;
76023;SDS011;64719;52.124;6.226;2023-07-29T06:12:37;4.60;;;2.20;;
76023;SDS011;64719;52.124;6.226;2023-07-29T06:15:06;6.47;;;3.13;;
76023;SDS011;64719;52.124;6.226;2023-07-29T06:17:33;5.43;;;2.20;;
76023;SDS011;64719;52.124;6.226;2023-07-29T06:19:59;3.90;;;2.00;;
76023;SDS011;64719;52.124;6.226;2023-07-29T06:22:26;5.07;;;2.30;;
76023;SDS011;64719;52.124;6.226;2023-07-29T06:24:52;6.35;;;2.53;;
76023;SDS011;64719;52.124;6.226;2023-07-29T06:27:19;4.97;;;2.55;;
76023;SDS011;64719;52.124;6.226;2023-07-29T06:29:45;5.43;;;2.55;;
76023;SDS011;64719;52.124;6.226;2023-07-29T06:32:13;4.65;;;2.40;;
76023;SDS011;64719;52.124;6.226;2023-07-29T06:39:32;4.10;;;2.30;;
76023;SDS011;64719;52.124;6.226;2023-07-29T06:41:59;4.93;;;3.15;;
76023;SDS011;64719;52.124;6.226;2023-07-29T06:44:27;4.70;;;2.92;;
76023;SDS011;64719;52.124;6.226;2023-07-29T06:46:53;4.68;;;2.78;;
76023;SDS011;64719;52.124;6.226;2023-07-29T06:49:21;5.18;;;2.83;;
76023;SDS011;64719;52.124;6.226;2023-07-29T06:51:48;4.82;;;2.67;;
76023;SDS011;64719;52.124;6.226;2023-07-29T06:54:15;4.68;;;2.58;;
76023;SDS011;64719;52.124;6.226;2023-07-29T06:56:42;3.72;;;2.40;;
76023;SDS011;64719;52.124;6.226;2023-07-29T06:59:09;7.38;;;2.70;;
76023;SDS011;64719;52.124;6.226;2023-07-29T07:01:36;5.60;;;3.00;;
76023;SDS011;64719;52.124;6.226;2023-07-29T07:04:02;3.85;;;2.50;;
76023;SDS011;64719;52.124;6.226;2023-07-29T07:06:30;3.83;;;2.28;;
76023;SDS011;64719;52.124;6.226;2023-07-29T07:08:57;7.60;;;2.70;;
76023;SDS011;64719;52.124;6.226;2023-07-29T07:11:23;4.32;;;2.78;;
76023;SDS011;64719;52.124;6.226;2023-07-29T07:13:50;4.05;;;2.70;;
76023;SDS011;64719;52.124;6.226;2023-07-29T07:16:16;5.50;;;2.80;;
76023;SDS011;64719;52.124;6.226;2023-07-29T07:18:43;4.32;;;2.53;;
76023;SDS011;64719;52.124;6.226;2023-07-29T07:21:09;4.60;;;2.40;;
76023;SDS011;64719;52.124;6.226;2023-07-29T07:23:38;3.65;;;2.50;;
76023;SDS011;64719;52.124;6.226;2023-07-29T07:26:04;4.38;;;2.80;;
76023;SDS011;64719;52.124;6.226;2023-07-29T07:28:31;4.15;;;2.80;;
76023;SDS011;64719;52.124;6.226;2023-07-29T07:30:57;4.80;;;2.33;;
76023;SDS011;64719;52.124;6.226;2023-07-29T07:33:24;8.73;;;2.60;;
76023;SDS011;64719;52.124;6.226;2023-07-29T07:35:51;3.47;;;2.10;;
76023;SDS011;64719;52.124;6.226;2023-07-29T07:38:17;3.10;;;1.70;;
76023;SDS011;64719;52.124;6.226;2023-07-29T07:40:53;3.53;;;2.25;;
76023;SDS011;64719;52.124;6.226;2023-07-29T07:43:20;5.40;;;2.08;;
76023;SDS011;64719;52.124;6.226;2023-07-29T07:45:47;3.45;;;2.20;;
76023;SDS011;64719;52.124;6.226;2023-07-29T07:48:14;3.28;;;2.47;;
76023;SDS011;64719;52.124;6.226;2023-07-29T07:50:41;6.20;;;2.20;;
76023;SDS011;64719;52.124;6.226;2023-07-29T07:53:08;3.65;;;2.17;;
76023;SDS011;64719;52.124;6.226;2023-07-29T07:55:35;4.38;;;2.28;;
76023;SDS011;64719;52.124;6.226;2023-07-29T07:58:03;5.60;;;2.70;;
76023;SDS011;64719;52.124;6.226;2023-07-29T08:00:29;4.57;;;2.58;;
76023;SDS011;64719;52.124;6.226;2023-07-29T08:02:56;5.90;;;2.63;;
76023;SDS011;64719;52.124;6.226;2023-07-29T08:05:23;4.78;;;2.58;;
76023;SDS011;64719;52.124;6.226;2023-07-29T08:07:49;4.85;;;3.13;;
76023;SDS011;64719;52.124;6.226;2023-07-29T08:10:16;4.53;;;2.33;;
76023;SDS011;64719;52.124;6.226;2023-07-29T08:12:42;3.67;;;2.28;;
76023;SDS011;64719;52.124;6.226;2023-07-29T08:15:10;3.97;;;2.45;;
76023;SDS011;64719;52.124;6.226;2023-07-29T08:17:37;3.00;;;2.40;;
76023;SDS011;64719;52.124;6.226;2023-07-29T08:20:04;3.40;;;2.38;;
76023;SDS011;64719;52.124;6.226;2023-07-29T08:22:31;3.53;;;2.15;;
76023;SDS011;64719;52.124;6.226;2023-07-29T08:24:58;4.60;;;2.60;;
76023;SDS011;64719;52.124;6.226;2023-07-29T08:27:24;6.57;;;2.72;;
76023;SDS011;64719;52.124;6.226;2023-07-29T08:29:51;4.00;;;2.78;;
76023;SDS011;64719;52.124;6.226;2023-07-29T08:32:19;3.22;;;2.33;;
76023;SDS011;64719;52.124;6.226;2023-07-29T08:34:45;4.15;;;1.95;;
76023;SDS011;64719;52.124;6.226;2023-07-29T08:37:12;5.32;;;2.95;;
76023;SDS011;64719;52.124;6.226;2023-07-29T08:39:38;3.55;;;2.20;;
76023;SDS011;64719;52.124;6.226;2023-07-29T08:42:06;3.28;;;2.28;;
76023;SDS011;64719;52.124;6.226;2023-07-29T08:44:36;3.83;;;2.40;;
76023;SDS011;64719;52.124;6.226;2023-07-29T08:47:06;4.43;;;2.60;;
76023;SDS011;64719;52.124;6.226;2023-07-29T08:49:34;5.00;;;2.60;;
76023;SDS011;64719;52.124;6.226;2023-07-29T08:52:02;4.90;;;2.97;;
76023;SDS011;64719;52.124;6.226;2023-07-29T08:54:30;3.50;;;2.60;;
76023;SDS011;64719;52.124;6.226;2023-07-29T08:56:57;3.38;;;2.63;;
76023;SDS011;64719;52.124;6.226;2023-07-29T08:59:25;5.35;;;3.15;;
76023;SDS011;64719;52.124;6.226;2023-07-29T09:01:52;4.32;;;3.15;;
76023;SDS011;64719;52.124;6.226;2023-07-29T09:04:20;4.90;;;3.13;;
76023;SDS011;64719;52.124;6.226;2023-07-29T09:06:50;4.88;;;2.80;;
76023;SDS011;64719;52.124;6.226;2023-07-29T09:09:17;4.63;;;3.30;;
76023;SDS011;64719;52.124;6.226;2023-07-29T09:11:43;6.65;;;3.22;;
76023;SDS011;64719;52.124;6.226;2023-07-29T09:14:10;4.32;;;3.10;;
76023;SDS011;64719;52.124;6.226;2023-07-29T09:16:38;3.67;;;2.97;;
76023;SDS011;64719;52.124;6.226;2023-07-29T09:19:04;7.82;;;3.45;;
76023;SDS011;64719;52.124;6.226;2023-07-29T09:21:31;4.50;;;3.00;;
76023;SDS011;64719;52.124;6.226;2023-07-29T09:24:02;5.22;;;3.08;;
76023;SDS011;64719;52.124;6.226;2023-07-29T09:26:30;4.70;;;2.90;;
76023;SDS011;64719;52.124;6.226;2023-07-29T09:28:58;5.00;;;3.30;;
76023;SDS011;64719;52.124;6.226;2023-07-29T09:31:26;6.63;;;3.60;;
76023;SDS011;64719;52.124;6.226;2023-07-29T09:33:55;5.07;;;2.95;;
76023;SDS011;64719;52.124;6.226;2023-07-29T09:36:22;4.03;;;2.50;;
76023;SDS011;64719;52.124;6.226;2023-07-29T09:38:50;3.85;;;2.50;;
76023;SDS011;64719;52.124;6.226;2023-07-29T09:41:20;4.68;;;2.63;;
76023;SDS011;64719;52.124;6.226;2023-07-29T09:43:51;3.60;;;2.40;;
76023;SDS011;64719;52.124;6.226;2023-07-29T09:46:22;2.90;;;2.28;;
76023;SDS011;64719;52.124;6.226;2023-07-29T09:48:50;2.95;;;2.60;;
76023;SDS011;64719;52.124;6.226;2023-07-29T09:51:20;2.45;;;2.10;;
76023;SDS011;64719;52.124;6.226;2023-07-29T09:53:47;2.95;;;2.25;;
76023;SDS011;64719;52.124;6.226;2023-07-29T09:58:43;3.90;;;1.80;;
76023;SDS011;64719;52.124;6.226;2023-07-29T10:01:10;3.85;;;1.75;;
76023;SDS011;64719;52.124;6.226;2023-07-29T10:03:37;2.85;;;1.70;;
76023;SDS011;64719;52.124;6.226;2023-07-29T10:06:05;1.95;;;1.52;;
76023;SDS011;64719;52.124;6.226;2023-07-29T10:08:32;2.35;;;1.63;;
76023;SDS011;64719;52.124;6.226;2023-07-29T10:11:01;2.67;;;1.63;;
76023;SDS011;64719;52.124;6.226;2023-07-29T10:13:29;3.03;;;1.73;;
76023;SDS011;64719;52.124;6.226;2023-07-29T10:15:57;4.18;;;1.90;;
76023;SDS011;64719;52.124;6.226;2023-07-29T10:18:24;3.92;;;1.60;;
76023;SDS011;64719;52.124;6.226;2023-07-29T10:20:51;2.42;;;1.60;;
76023;SDS011;64719;52.124;6.226;2023-07-29T10:23:19;3.90;;;1.67;;
76023;SDS011;64719;52.124;6.226;2023-07-29T10:25:49;2.22;;;1.60;;
76023;SDS011;64719;52.124;6.226;2023-07-29T10:28:20;3.00;;;1.80;;
76023;SDS011;64719;52.124;6.226;2023-07-29T10:30:51;4.68;;;2.05;;
76023;SDS011;64719;52.124;6.226;2023-07-29T10:33:19;2.88;;;1.95;;
76023;SDS011;64719;52.124;6.226;2023-07-29T10:35:46;2.97;;;1.60;;
76023;SDS011;64719;52.124;6.226;2023-07-29T10:38:13;3.80;;;1.88;;
76023;SDS011;64719;52.124;6.226;2023-07-29T10:40:44;2.67;;;1.75;;
76023;SDS011;64719;52.124;6.226;2023-07-29T10:43:12;3.67;;;1.60;;
76023;SDS011;64719;52.124;6.226;2023-07-29T10:45:44;2.28;;;1.30;;
76023;SDS011;64719;52.124;6.226;2023-07-29T10:48:11;2.72;;;1.52;;
76023;SDS011;64719;52.124;6.226;2023-07-29T10:50:40;2.40;;;1.33;;
76023;SDS011;64719;52.124;6.226;2023-07-29T10:53:06;2.45;;;1.35;;
76023;SDS011;64719;52.124;6.226;2023-07-29T10:55:33;2.15;;;1.30;;
76023;SDS011;64719;52.124;6.226;2023-07-29T10:58:09;2.53;;;1.50;;
76023;SDS011;64719;52.124;6.226;2023-07-29T11:00:38;2.30;;;1.40;;
76023;SDS011;64719;52.124;6.226;2023-07-29T11:03:07;1.73;;;1.25;;
76023;SDS011;64719;52.124;6.226;2023-07-29T11:05:48;1.63;;;0.95;;
76023;SDS011;64719;52.124;6.226;2023-07-29T11:08:20;2.50;;;1.33;;
76023;SDS011;64719;52.124;6.226;2023-07-29T11:11:03;3.10;;;1.45;;
76023;SDS011;64719;52.124;6.226;2023-07-29T11:13:31;1.65;;;1.10;;
76023;SDS011;64719;52.124;6.226;2023-07-29T11:15:59;2.83;;;1.20;;
76023;SDS011;64719;52.124;6.226;2023-07-29T11:18:27;1.73;;;1.10;;
76023;SDS011;64719;52.124;6.226;2023-07-29T11:20:56;2.50;;;1.17;;
76023;SDS011;64719;52.124;6.226;2023-07-29T11:23:28;1.50;;;1.10;;
76023;SDS011;64719;52.124;6.226;2023-07-29T11:25:56;3.90;;;1.52;;
76023;SDS011;64719;52.124;6.226;2023-07-29T11:28:23;1.95;;;1.10;;
76023;SDS011;64719;52.124;6.226;2023-07-29T11:30:50;2.70;;;1.30;;
76023;SDS011;64719;52.124;6.226;2023-07-29T11:33:17;2.08;;;1.30;;
76023;SDS011;64719;52.124;6.226;2023-07-29T11:35:45;2.47;;;1.30;;
76023;SDS011;64719;52.124;6.226;2023-07-29T11:38:16;2.83;;;1.50;;
76023;SDS011;64719;52.124;6.226;2023-07-29T11:40:43;4.30;;;2.00;;
76023;SDS011;64719;52.124;6.226;2023-07-29T11:43:20;2.97;;;1.85;;
76023;SDS011;64719;52.124;6.226;2023-07-29T11:45:46;2.33;;;1.70;;
76023;SDS011;64719;52.124;6.226;2023-07-29T11:48:13;3.22;;;1.98;;
76023;SDS011;64719;52.124;6.226;2023-07-29T11:50:40;3.20;;;1.73;;
76023;SDS011;64719;52.124;6.226;2023-07-29T11:53:06;2.15;;;1.60;;
76023;SDS011;64719;52.124;6.226;2023-07-29T11:55:34;2.88;;;1.73;;
76023;SDS011;64719;52.124;6.226;2023-07-29T11:58:01;3.55;;;1.70;;
76023;SDS011;64719;52.124;6.226;2023-07-29T12:00:28;3.53;;;1.80;;
76023;SDS011;64719;52.124;6.226;2023-07-29T12:02:55;2.97;;;1.60;;
76023;SDS011;64719;52.124;6.226;2023-07-29T12:05:22;3.35;;;1.60;;
76023;SDS011;64719;52.124;6.226;2023-07-29T12:07:50;2.47;;;1.52;;
76023;SDS011;64719;52.124;6.226;2023-07-29T12:10:17;2.20;;;1.45;;
76023;SDS011;64719;52.124;6.226;2023-07-29T12:12:47;2.90;;;1.70;;
76023;SDS011;64719;52.124;6.226;2023-07-29T12:15:22;2.53;;;1.58;;
76023;SDS011;64719;52.124;6.226;2023-07-29T12:17:52;3.63;;;1.55;;
76023;SDS011;64719;52.124;6.226;2023-07-29T12:20:20;1.77;;;1.38;;
76023;SDS011;64719;52.124;6.226;2023-07-29T12:22:51;4.20;;;2.10;;
76023;SDS011;64719;52.124;6.226;2023-07-29T12:25:18;3.08;;;1.98;;
76023;SDS011;64719;52.124;6.226;2023-07-29T12:27:45;1.88;;;1.38;;
76023;SDS011;64719;52.124;6.226;2023-07-29T12:30:13;2.40;;;1.42;;
76023;SDS011;64719;52.124;6.226;2023-07-29T12:32:42;1.65;;;1.15;;
76023;SDS011;64719;52.124;6.226;2023-07-29T12:35:10;1.40;;;1.00;;
76023;SDS011;64719;52.124;6.226;2023-07-29T12:37:36;3.35;;;1.15;;
76023;SDS011;64719;52.124;6.226;2023-07-29T12:40:04;2.60;;;1.20;;
76023;SDS011;64719;52.124;6.226;2023-07-29T12:42:31;3.90;;;1.45;;
76023;SDS011;64719;52.124;6.226;2023-07-29T12:44:58;2.03;;;1.27;;
76023;SDS011;64719;52.124;6.226;2023-07-29T12:47:26;2.10;;;1.55;;
76023;SDS011;64719;52.124;6.226;2023-07-29T12:52:19;2.72;;;1.38;;
76023;SDS011;64719;52.124;6.226;2023-07-29T12:54:45;1.90;;;1.30;;
76023;SDS011;64719;52.124;6.226;2023-07-29T12:57:12;2.53;;;1.30;;
76023;SDS011;64719;52.124;6.226;2023-07-29T12:59:38;2.15;;;1.30;;
76023;SDS011;64719;52.124;6.226;2023-07-29T13:02:05;1.92;;;1.10;;
76023;SDS011;64719;52.124;6.226;2023-07-29T13:04:33;1.63;;;1.30;;
76023;SDS011;64719;52.124;6.226;2023-07-29T13:06:59;1.83;;;1.02;;
76023;SDS011;64719;52.124;6.226;2023-07-29T13:09:26;2.80;;;1.00;;
76023;SDS011;64719;52.124;6.226;2023-07-29T13:11:52;1.50;;;1.00;;
76023;SDS011;64719;52.124;6.226;2023-07-29T13:14:19;1.80;;;0.88;;
76023;SDS011;64719;52.124;6.226;2023-07-29T13:16:45;1.45;;;0.93;;
76023;SDS011;64719;52.124;6.226;2023-07-29T13:19:12;1.70;;;1.15;;
76023;SDS011;64719;52.124;6.226;2023-07-29T13:21:40;1.60;;;0.98;;
76023;SDS011;64719;52.124;6.226;2023-07-29T13:24:06;1.70;;;1.20;;
76023;SDS011;64719;52.124;6.226;2023-07-29T13:26:33;2.00;;;1.08;;
76023;SDS011;64719;52.124;6.226;2023-07-29T13:29:00;2.15;;;1.08;;
76023;SDS011;64719;52.124;6.226;2023-07-29T13:31:27;1.60;;;1.10;;
76023;SDS011;64719;52.124;6.226;2023-07-29T13:33:53;2.40;;;1.25;;
76023;SDS011;64719;52.124;6.226;2023-07-29T13:36:20;1.83;;;1.33;;
76023;SDS011;64719;52.124;6.226;2023-07-29T13:38:48;1.80;;;1.40;;
76023;SDS011;64719;52.124;6.226;2023-07-29T13:41:14;2.10;;;1.20;;
76023;SDS011;64719;52.124;6.226;2023-07-29T13:43:41;1.70;;;1.20;;
76023;SDS011;64719;52.124;6.226;2023-07-29T13:46:07;2.63;;;1.10;;
76023;SDS011;64719;52.124;6.226;2023-07-29T13:48:34;1.60;;;1.10;;
76023;SDS011;64719;52.124;6.226;2023-07-29T13:51:01;1.70;;;1.35;;
76023;SDS011;64719;52.124;6.226;2023-07-29T13:53:27;3.22;;;1.30;;
76023;SDS011;64719;52.124;6.226;2023-07-29T13:55:55;4.68;;;1.48;;
76023;SDS011;64719;52.124;6.226;2023-07-29T13:58:22;2.08;;;1.48;;
76023;SDS011;64719;52.124;6.226;2023-07-29T14:00:48;1.90;;;1.40;;
76023;SDS011;64719;52.124;6.226;2023-07-29T14:03:15;2.00;;;1.20;;
76023;SDS011;64719;52.124;6.226;2023-07-29T14:05:42;2.13;;;1.55;;
76023;SDS011;64719;52.124;6.226;2023-07-29T14:08:08;2.42;;;1.60;;
76023;SDS011;64719;52.124;6.226;2023-07-29T14:10:35;2.00;;;1.70;;
76023;SDS011;64719;52.124;6.226;2023-07-29T14:13:02;3.70;;;1.80;;
76023;SDS011;64719;52.124;6.226;2023-07-29T14:15:29;2.45;;;1.60;;
76023;SDS011;64719;52.124;6.226;2023-07-29T14:17:57;3.38;;;1.73;;
76023;SDS011;64719;52.124;6.226;2023-07-29T14:20:24;3.60;;;2.15;;
76023;SDS011;64719;52.124;6.226;2023-07-29T14:22:50;2.38;;;1.70;;
76023;SDS011;64719;52.124;6.226;2023-07-29T14:25:17;2.72;;;1.95;;
76023;SDS011;64719;52.124;6.226;2023-07-29T14:27:43;2.92;;;2.20;;
76023;SDS011;64719;52.124;6.226;2023-07-29T14:30:11;2.10;;;1.80;;
76023;SDS011;64719;52.124;6.226;2023-07-29T14:32:38;2.92;;;1.80;;
76023;SDS011;64719;52.124;6.226;2023-07-29T14:35:05;2.13;;;1.55;;
76023;SDS011;64719;52.124;6.226;2023-07-29T14:37:33;3.20;;;1.60;;
76023;SDS011;64719;52.124;6.226;2023-07-29T14:39:59;1.90;;;1.55;;
76023;SDS011;64719;52.124;6.226;2023-07-29T14:42:26;1.50;;;1.30;;
76023;SDS011;64719;52.124;6.226;2023-07-29T14:44:54;1.85;;;1.42;;
76023;SDS011;64719;52.124;6.226;2023-07-29T14:47:21;1.75;;;1.40;;
76023;SDS011;64719;52.124;6.226;2023-07-29T14:49:48;1.90;;;1.38;;
76023;SDS011;64719;52.124;6.226;2023-07-29T14:52:15;1.70;;;1.40;;
76023;SDS011;64719;52.124;6.226;2023-07-29T14:54:41;2.13;;;1.20;;
76023;SDS011;64719;52.124;6.226;2023-07-29T14:57:09;2.67;;;1.65;;
76023;SDS011;64719;52.124;6.226;2023-07-29T14:59:36;2.25;;;1.60;;
76023;SDS011;64719;52.124;6.226;2023-07-29T15:02:03;2.45;;;1.40;;
76023;SDS011;64719;52.124;6.226;2023-07-29T15:04:31;1.85;;;1.40;;
76023;SDS011;64719;52.124;6.226;2023-07-29T15:06:58;1.98;;;1.50;;
76023;SDS011;64719;52.124;6.226;2023-07-29T15:09:25;2.40;;;1.48;;
76023;SDS011;64719;52.124;6.226;2023-07-29T15:11:51;2.53;;;1.60;;
76023;SDS011;64719;52.124;6.226;2023-07-29T15:14:18;2.97;;;1.70;;
76023;SDS011;64719;52.124;6.226;2023-07-29T15:16:45;2.05;;;1.48;;
76023;SDS011;64719;52.124;6.226;2023-07-29T15:19:11;1.98;;;1.52;;
76023;SDS011;64719;52.124;6.226;2023-07-29T15:21:40;2.30;;;1.80;;